createdAt,value
2018-12-30T16:44:13.455Z,75.40
2018-12-30T16:46:41.498Z,76.30
2018-12-30T16:49:10.176Z,75.90
2018-12-30T16:51:46.751Z,76.30
2018-12-30T16:54:14.750Z,76.10
2018-12-30T16:56:43.196Z,76.50
2018-12-30T16:59:12.738Z,77.60
2018-12-30T17:01:41.371Z,76.60
2018-12-30T17:04:09.048Z,76.20
2018-12-30T17:06:36.967Z,75.50
2018-12-30T17:09:06.206Z,75.50
2018-12-30T17:11:37.178Z,75.80
2018-12-30T17:14:13.933Z,75.30
2018-12-30T17:16:42.076Z,76.20
2018-12-30T17:19:09.976Z,76.40
2018-12-30T17:21:41.525Z,78.60
2018-12-30T17:24:08.866Z,78.10
2018-12-30T17:26:47.937Z,79.00
2018-12-30T17:29:16.772Z,77.70
2018-12-30T17:31:44.472Z,76.60
2018-12-30T17:34:12.921Z,77.80
2018-12-30T17:36:41.231Z,77.80
2018-12-30T17:39:10.227Z,77.30
2018-12-30T17:41:40.340Z,78.00
2018-12-30T17:44:09.601Z,77.60
2018-12-30T17:46:38.013Z,76.10
2018-12-30T17:49:29.688Z,76.40
2018-12-30T17:51:58.717Z,77.20
2018-12-30T17:54:26.924Z,77.20
2018-12-30T17:56:54.823Z,77.30
2018-12-30T17:59:37.504Z,78.10
2018-12-30T18:02:07.061Z,77.40
2018-12-30T18:04:34.887Z,77.30
2018-12-30T18:07:03.735Z,77.80
2018-12-30T18:09:33.337Z,77.40
2018-12-30T18:12:20.556Z,76.40
2018-12-30T18:14:48.353Z,76.70
2018-12-30T18:17:17.839Z,76.60
2018-12-30T18:20:07.108Z,77.70
2018-12-30T18:22:38.045Z,77.60
2018-12-30T18:25:08.562Z,76.90
2018-12-30T18:27:37.327Z,77.00
2018-12-30T18:30:27.346Z,76.10
2018-12-30T18:32:55.007Z,76.40
2018-12-30T18:36:01.779Z,78.50
2018-12-30T18:44:30.131Z,76.70
2018-12-30T18:46:58.012Z,77.60
2018-12-30T18:49:26.460Z,76.80
2018-12-30T18:51:54.804Z,75.80
2018-12-30T18:54:23.521Z,76.70
2018-12-30T18:56:52.620Z,76.10
2018-12-30T18:59:20.696Z,76.10
2018-12-30T19:01:48.897Z,75.80
2018-12-30T19:04:17.243Z,75.90
2018-12-30T19:06:45.188Z,76.50
2018-12-30T19:09:22.923Z,77.10
2018-12-30T19:11:50.671Z,76.40
2018-12-30T19:14:19.478Z,74.80
2018-12-30T19:16:49.377Z,75.60
2018-12-30T19:19:18.181Z,76.10
2018-12-30T19:21:46.970Z,77.60
2018-12-30T19:24:16.950Z,76.60
2018-12-30T19:26:44.819Z,76.80
2018-12-30T19:29:13.151Z,77.20
2018-12-30T19:31:41.277Z,77.70
2018-12-30T19:37:07.060Z,76.80
2018-12-30T19:39:51.988Z,77.30
2018-12-30T19:42:20.811Z,76.90
2018-12-30T19:44:48.409Z,76.90
2018-12-30T19:47:16.983Z,78.00
2018-12-30T19:49:45.675Z,77.40
2018-12-30T19:52:19.285Z,78.90
2018-12-30T19:54:47.391Z,78.40
2018-12-30T19:57:16.231Z,77.60
2018-12-30T19:59:44.637Z,78.70
2018-12-30T20:02:18.084Z,79.70
2018-12-30T20:04:46.689Z,79.40
2018-12-30T20:07:14.440Z,78.20
2018-12-30T20:09:43.234Z,80.10
2018-12-30T20:12:13.685Z,79.60
2018-12-30T20:14:43.450Z,79.20
2018-12-30T20:17:13.943Z,80.70
2018-12-30T20:19:42.975Z,78.30
2018-12-30T20:22:12.148Z,78.90
2018-12-30T20:24:40.144Z,79.70
2018-12-30T20:27:08.060Z,79.60
2018-12-30T20:29:37.852Z,78.60
2018-12-30T20:32:17.074Z,79.80
2018-12-30T20:34:45.265Z,80.70
2018-12-30T20:37:13.309Z,80.60
2018-12-30T20:39:48.007Z,79.10
2018-12-30T20:42:16.410Z,79.20
2018-12-30T20:44:44.468Z,79.50
2018-12-30T20:47:17.649Z,80.10
2018-12-30T20:49:46.383Z,81.20
2018-12-30T20:52:14.610Z,82.40
2018-12-30T20:54:42.709Z,81.80
2018-12-30T20:57:11.906Z,81.70
2018-12-30T20:59:40.226Z,82.30
2018-12-30T21:04:56.410Z,80.90
2018-12-30T21:07:24.261Z,79.60
2018-12-30T21:12:39.662Z,81.60
2018-12-30T21:15:07.668Z,81.00
2018-12-30T21:17:36.618Z,86.40
2018-12-30T21:20:09.227Z,87.40
2018-12-30T21:31:18.751Z,90.90
2018-12-30T21:33:52.308Z,91.00
2018-12-30T21:36:24.482Z,90.90
2018-12-30T21:38:54.206Z,90.20
2018-12-30T21:41:23.615Z,91.60
2018-12-30T21:43:51.204Z,92.80
2018-12-30T21:46:25.643Z,92.80
2018-12-30T21:48:54.677Z,92.90
2018-12-30T21:51:40.868Z,92.50
2018-12-30T21:54:08.445Z,91.70
2018-12-30T22:03:04.530Z,91.80
2018-12-30T22:05:33.411Z,90.80
2018-12-30T22:08:02.076Z,92.30
2018-12-30T22:10:38.017Z,91.10
2018-12-30T22:13:20.852Z,92.10
2018-12-30T22:18:47.444Z,91.70
2018-12-30T22:21:16.281Z,92.00
2018-12-30T22:26:26.231Z,94.60
2018-12-30T22:31:37.049Z,93.70
2018-12-30T22:34:32.056Z,93.30
2018-12-30T22:36:59.663Z,93.00
2018-12-30T22:39:28.097Z,93.40
2018-12-30T22:41:55.938Z,95.10
2018-12-30T22:44:24.197Z,93.90
2018-12-30T22:47:23.813Z,93.70
2018-12-30T22:52:26.824Z,94.70
2018-12-30T22:58:20.148Z,93.60
2018-12-30T23:01:15.768Z,92.70
2018-12-30T23:04:14.087Z,93.70
2018-12-30T23:06:42.547Z,92.40
2018-12-30T23:09:10.801Z,93.10
2018-12-30T23:12:01.693Z,93.30
2018-12-30T23:14:29.747Z,94.20
2018-12-30T23:16:57.543Z,94.70
2018-12-30T23:19:26.323Z,93.20
2018-12-30T23:22:04.550Z,92.40
2018-12-30T23:24:34.361Z,92.90
2018-12-30T23:27:01.908Z,92.60
2018-12-30T23:29:40.442Z,92.20
2018-12-30T23:32:11.271Z,93.20
2018-12-30T23:34:46.746Z,92.90
2018-12-30T23:37:15.227Z,94.50
2018-12-30T23:39:42.806Z,93.70
2018-12-30T23:42:10.754Z,93.20
2018-12-30T23:44:38.366Z,92.30
2018-12-30T23:47:05.892Z,93.50
2018-12-30T23:49:33.462Z,95.30
2018-12-30T23:52:05.022Z,93.60
2018-12-30T23:54:32.733Z,92.50
2018-12-30T23:57:00.542Z,93.80
2018-12-30T23:59:28.138Z,93.20
